Time;durP1;ratioP1;P1;durP2;ratioP2;P2;SDS_P1;SDS_P2;PMS_P1;PMS_P2;Temp;Humidity;BMP_temperature;BMP_pressure;BME280_temperature;BME280_humidity;BME280_pressure;Samples;Min_cycle;Max_cycle;Signal;HPM_P1;HPM_P2
2021/08/23 00:02:07;;;;;;;17.27;15.07;;;17.80;99.90;;;;;;5012515;28;20026;-85
2021/08/23 00:04:33;;;;;;;21.40;19.17;;;17.80;99.90;;;;;;4995562;28;20101;-85
2021/08/23 00:06:58;;;;;;;21.10;18.75;;;17.80;99.90;;;;;;5028006;28;20033;-85
2021/08/23 00:09:24;;;;;;;26.63;21.40;;;17.80;99.90;;;;;;5014628;28;20156;-85
2021/08/23 00:11:49;;;;;;;24.17;20.75;;;17.80;99.90;;;;;;5018713;28;20075;-85
2021/08/23 00:14:15;;;;;;;28.25;23.08;;;17.80;99.90;;;;;;5020170;28;20105;-85
2021/08/23 00:16:40;;;;;;;25.73;21.02;;;17.80;99.90;;;;;;5017247;28;20025;-85
2021/08/23 00:19:06;;;;;;;28.40;24.00;;;17.80;99.90;;;;;;5012464;28;20136;-85
2021/08/23 00:21:41;;;;;;;29.60;22.85;;;17.70;99.90;;;;;;5018268;28;20035;-85
2021/08/23 00:24:07;;;;;;;33.28;25.50;;;17.70;99.90;;;;;;5027537;28;20025;-83
2021/08/23 00:26:33;;;;;;;33.05;26.25;;;17.70;99.90;;;;;;5027718;28;20029;-85
2021/08/23 00:28:59;;;;;;;29.80;25.35;;;17.60;99.90;;;;;;5019048;28;20128;-85
2021/08/23 00:31:25;;;;;;;35.00;26.50;;;17.70;99.90;;;;;;5018625;28;20056;-85
2021/08/23 00:33:51;;;;;;;31.77;26.38;;;17.70;99.90;;;;;;5019431;28;20426;-84
2021/08/23 00:36:16;;;;;;;37.42;30.10;;;17.70;99.90;;;;;;5018644;28;20096;-85
2021/08/23 00:38:42;;;;;;;36.85;29.65;;;17.60;99.90;;;;;;5017722;28;20120;-85
2021/08/23 00:41:08;;;;;;;31.27;26.35;;;17.60;99.90;;;;;;5018714;28;20079;-84
2021/08/23 00:43:33;;;;;;;31.40;26.67;;;17.70;99.90;;;;;;5019740;28;20071;-85
2021/08/23 00:46:00;;;;;;;32.17;26.52;;;17.60;99.90;;;;;;5016611;28;20035;-85
2021/08/23 00:48:25;;;;;;;36.83;28.38;;;17.60;99.90;;;;;;5015228;28;20029;-85
2021/08/23 00:50:51;;;;;;;34.97;27.38;;;17.60;99.90;;;;;;5036321;28;20024;-85
2021/08/23 00:53:17;;;;;;;39.22;30.83;;;17.60;99.90;;;;;;5013806;28;20037;-85
2021/08/23 00:55:43;;;;;;;40.17;30.17;;;17.70;99.90;;;;;;5005587;28;20026;-85
2021/08/23 00:58:09;;;;;;;37.30;29.48;;;17.60;99.90;;;;;;5017027;28;20141;-84
2021/08/23 01:00:38;;;;;;;41.30;29.67;;;17.60;99.90;;;;;;5015698;28;20120;-85
2021/08/23 01:03:13;;;;;;;38.80;30.48;;;17.60;99.90;;;;;;5014241;28;20025;-85
2021/08/23 01:05:39;;;;;;;41.03;27.80;;;17.60;99.90;;;;;;5023196;28;20044;-85
2021/08/23 01:08:26;;;;;;;39.70;28.88;;;17.60;99.90;;;;;;5019621;28;20396;-85
2021/08/23 01:10:53;;;;;;;39.58;27.92;;;17.60;99.90;;;;;;5028337;28;20519;-85
2021/08/23 01:13:22;;;;;;;37.65;27.65;;;17.60;99.90;;;;;;5019672;28;20486;-85
2021/08/23 01:15:47;;;;;;;36.50;27.45;;;17.50;99.90;;;;;;5013236;28;20390;-85
2021/08/23 01:18:13;;;;;;;29.55;22.95;;;17.50;99.90;;;;;;5015029;28;20060;-84
2021/08/23 01:20:42;;;;;;;34.28;26.58;;;17.50;99.90;;;;;;5015110;28;20022;-84
2021/08/23 01:23:10;;;;;;;30.38;24.65;;;17.50;99.90;;;;;;5012961;28;20085;-85
2021/08/23 01:25:37;;;;;;;29.48;22.52;;;17.50;99.90;;;;;;5006983;28;20157;-84
2021/08/23 01:28:24;;;;;;;33.15;23.70;;;17.40;99.90;;;;;;5012132;28;20022;-85
2021/08/23 01:31:05;;;;;;;28.90;21.77;;;17.40;99.90;;;;;;5001670;28;20122;-85
2021/08/23 01:33:31;;;;;;;30.65;21.45;;;17.40;99.90;;;;;;4995803;28;20117;-84
2021/08/23 01:35:59;;;;;;;30.73;21.63;;;17.30;99.90;;;;;;5009290;28;20061;-85
2021/08/23 01:38:25;;;;;;;32.15;23.35;;;17.30;99.90;;;;;;5029773;28;20073;-85
2021/08/23 01:41:01;;;;;;;30.65;22.23;;;17.30;99.90;;;;;;5014127;28;20018;-84
2021/08/23 01:43:27;;;;;;;31.80;23.98;;;17.30;99.90;;;;;;5014382;28;20509;-85
2021/08/23 01:45:53;;;;;;;32.58;25.35;;;17.30;99.90;;;;;;5014396;28;20029;-85
2021/08/23 01:48:19;;;;;;;34.83;25.83;;;17.30;99.90;;;;;;5014633;28;20551;-84
2021/08/23 01:50:44;;;;;;;37.88;28.02;;;17.20;99.90;;;;;;5014945;28;20026;-85
2021/08/23 01:53:10;;;;;;;40.00;29.40;;;17.30;99.90;;;;;;5015343;28;20037;-84
2021/08/23 01:55:35;;;;;;;33.10;26.70;;;17.30;99.90;;;;;;5012645;28;20037;-84
2021/08/23 01:58:02;;;;;;;35.25;27.15;;;17.30;99.90;;;;;;5010856;28;20156;-84
2021/08/23 02:00:27;;;;;;;35.28;26.77;;;17.20;99.90;;;;;;5010469;28;20038;-85
2021/08/23 02:02:53;;;;;;;37.47;28.90;;;17.20;99.90;;;;;;5023417;28;20027;-85
2021/08/23 02:05:19;;;;;;;32.38;26.90;;;17.20;99.90;;;;;;5012916;28;20033;-85
2021/08/23 02:07:44;;;;;;;35.30;27.67;;;17.20;99.90;;;;;;5014454;28;20112;-84
2021/08/23 02:10:10;;;;;;;34.05;26.75;;;17.20;99.90;;;;;;5007993;28;20077;-83
2021/08/23 02:12:35;;;;;;;36.75;26.70;;;17.20;99.90;;;;;;5013242;28;20430;-83
2021/08/23 02:15:01;;;;;;;35.20;28.05;;;17.20;99.90;;;;;;5015366;28;20433;-84
2021/08/23 02:17:26;;;;;;;32.38;27.17;;;17.20;99.90;;;;;;5012708;28;20486;-84
2021/08/23 02:19:52;;;;;;;42.83;28.80;;;17.20;99.90;;;;;;5009740;28;20034;-85
2021/08/23 02:22:17;;;;;;;34.35;27.50;;;17.20;99.90;;;;;;5010648;28;20026;-84
2021/08/23 02:24:43;;;;;;;37.03;28.00;;;17.20;99.90;;;;;;5013860;28;20080;-83
2021/08/23 02:27:09;;;;;;;40.15;27.52;;;17.20;99.90;;;;;;5007980;28;20018;-84
2021/08/23 02:29:34;;;;;;;39.95;29.10;;;17.20;99.90;;;;;;5009681;28;20034;-84
2021/08/23 02:32:00;;;;;;;39.47;30.50;;;17.20;99.90;;;;;;5010999;28;20030;-84
2021/08/23 02:34:26;;;;;;;41.10;29.27;;;17.20;99.90;;;;;;4999649;28;20026;-83
2021/08/23 02:36:51;;;;;;;43.33;27.48;;;17.20;99.90;;;;;;5012365;28;20037;-84
2021/08/23 02:39:17;;;;;;;39.65;27.88;;;17.20;99.90;;;;;;5008087;28;20037;-83
2021/08/23 02:41:42;;;;;;;41.50;28.83;;;17.20;99.90;;;;;;5012185;28;20033;-84
2021/08/23 02:44:08;;;;;;;54.05;33.00;;;17.20;99.90;;;;;;5013685;28;20038;-84
2021/08/23 02:46:33;;;;;;;49.72;31.85;;;17.20;99.90;;;;;;5009712;28;20113;-84
2021/08/23 02:48:59;;;;;;;52.05;32.72;;;17.20;99.90;;;;;;5009825;28;20126;-84
2021/08/23 02:51:24;;;;;;;53.08;31.35;;;17.20;99.90;;;;;;5013697;28;20045;-84
2021/08/23 02:53:50;;;;;;;63.33;36.45;;;17.20;99.90;;;;;;5011209;28;20042;-83
2021/08/23 02:56:15;;;;;;;49.33;29.05;;;17.20;99.90;;;;;;5011338;28;20026;-84
2021/08/23 02:58:41;;;;;;;64.35;34.92;;;17.20;99.90;;;;;;5012036;28;20132;-83
2021/08/23 03:01:06;;;;;;;58.72;34.15;;;17.10;99.90;;;;;;5002426;28;20109;-84
2021/08/23 03:03:35;;;;;;;59.85;34.30;;;17.20;99.90;;;;;;5013663;28;20034;-84
2021/08/23 03:06:01;;;;;;;65.05;34.97;;;17.20;99.90;;;;;;5009893;28;20433;-84
2021/08/23 03:08:26;;;;;;;63.08;36.55;;;17.20;99.90;;;;;;5002778;28;20037;-83
2021/08/23 03:10:54;;;;;;;58.30;34.00;;;17.20;99.90;;;;;;5009653;28;20026;-83
2021/08/23 03:13:21;;;;;;;64.45;34.03;;;17.20;99.90;;;;;;5009597;28;20030;-84
2021/08/23 03:15:46;;;;;;;56.97;33.53;;;17.20;99.90;;;;;;5011306;28;20167;-84
2021/08/23 03:18:12;;;;;;;61.63;34.58;;;17.20;99.90;;;;;;5011530;28;20176;-84
2021/08/23 03:20:37;;;;;;;60.33;34.53;;;17.20;99.90;;;;;;5007962;28;20108;-84
2021/08/23 03:23:04;;;;;;;54.20;32.75;;;17.30;99.90;;;;;;4996891;28;20050;-84
2021/08/23 03:25:29;;;;;;;47.92;31.50;;;17.30;99.90;;;;;;5012859;28;20105;-84
2021/08/23 03:27:55;;;;;;;50.38;30.52;;;17.20;99.90;;;;;;5004998;28;20057;-84
2021/08/23 03:30:20;;;;;;;49.42;30.08;;;17.20;99.90;;;;;;5011515;28;20501;-83
2021/08/23 03:32:46;;;;;;;48.13;29.52;;;17.20;99.90;;;;;;5008091;28;20030;-84
2021/08/23 03:35:11;;;;;;;50.65;29.65;;;17.30;99.90;;;;;;5005178;28;20018;-84
2021/08/23 03:37:37;;;;;;;47.00;28.70;;;17.30;99.90;;;;;;5013311;28;20444;-84
2021/08/23 03:40:03;;;;;;;50.60;30.55;;;17.30;99.90;;;;;;5012888;28;20474;-84
2021/08/23 03:42:28;;;;;;;49.08;28.63;;;17.30;99.90;;;;;;5004551;28;20026;-84
2021/08/23 03:44:54;;;;;;;43.15;25.88;;;17.30;99.90;;;;;;5011415;28;20164;-84
2021/08/23 03:47:19;;;;;;;42.58;25.80;;;17.30;99.90;;;;;;5005025;28;20026;-84
2021/08/23 03:49:45;;;;;;;39.72;23.90;;;17.30;99.90;;;;;;5010189;28;20556;-84
2021/08/23 03:52:11;;;;;;;44.85;25.60;;;17.30;99.90;;;;;;5003141;28;20022;-85
2021/08/23 03:54:37;;;;;;;40.42;26.05;;;17.30;99.90;;;;;;5011452;28;20038;-84
2021/08/23 03:57:02;;;;;;;38.78;24.02;;;17.20;99.90;;;;;;5010618;28;20018;-84
2021/08/23 03:59:28;;;;;;;40.15;24.73;;;17.30;99.90;;;;;;4998942;28;20128;-84
2021/08/23 04:01:53;;;;;;;49.60;28.20;;;17.20;99.90;;;;;;5005260;28;20375;-84
2021/08/23 04:04:19;;;;;;;41.63;27.02;;;17.10;99.90;;;;;;5010480;28;20513;-83
2021/08/23 04:06:45;;;;;;;44.13;27.98;;;17.10;99.90;;;;;;5010499;28;20116;-84
2021/08/23 04:09:14;;;;;;;45.10;27.55;;;17.10;99.90;;;;;;5003254;28;20022;-84
2021/08/23 04:11:40;;;;;;;47.15;29.50;;;17.10;99.90;;;;;;5002363;28;20053;-83
2021/08/23 04:14:06;;;;;;;51.33;30.90;;;17.00;99.90;;;;;;5011327;28;20018;-84
2021/08/23 04:16:32;;;;;;;53.25;31.25;;;17.10;99.90;;;;;;5011913;28;20375;-84
2021/08/23 04:18:58;;;;;;;56.92;33.20;;;17.10;99.90;;;;;;5011511;28;20132;-84
2021/08/23 04:21:23;;;;;;;54.25;32.33;;;17.10;99.90;;;;;;5011692;28;20102;-84
2021/08/23 04:23:49;;;;;;;50.10;30.63;;;17.00;99.90;;;;;;5011652;28;20026;-83
2021/08/23 04:26:14;;;;;;;52.47;30.90;;;17.00;99.90;;;;;;5010067;28;20018;-84
2021/08/23 04:28:40;;;;;;;49.22;30.30;;;17.00;99.90;;;;;;5024718;28;20406;-84
2021/08/23 04:31:05;;;;;;;44.88;28.40;;;17.00;99.90;;;;;;5012093;28;20505;-85
2021/08/23 04:33:31;;;;;;;49.20;30.40;;;17.00;99.90;;;;;;5009866;28;20410;-84
2021/08/23 04:35:56;;;;;;;48.80;28.85;;;17.00;99.90;;;;;;5010517;28;20029;-84
2021/08/23 04:38:22;;;;;;;52.88;29.75;;;16.90;99.90;;;;;;5012175;28;20141;-85
2021/08/23 04:40:48;;;;;;;51.50;31.38;;;17.00;99.90;;;;;;5007917;28;20088;-84
2021/08/23 04:43:13;;;;;;;52.92;31.55;;;17.00;99.90;;;;;;4997724;28;20093;-85
2021/08/23 04:45:39;;;;;;;49.47;30.40;;;16.90;99.90;;;;;;5009299;28;20528;-84
2021/08/23 04:48:04;;;;;;;53.42;30.90;;;16.90;99.90;;;;;;5012456;28;20022;-84
2021/08/23 04:50:30;;;;;;;54.42;32.90;;;16.90;99.90;;;;;;4997877;28;20041;-84
2021/08/23 04:52:55;;;;;;;46.03;27.75;;;16.80;99.90;;;;;;4996138;28;20022;-84
2021/08/23 04:55:21;;;;;;;43.47;26.48;;;16.80;99.90;;;;;;5012187;28;20112;-84
2021/08/23 04:57:47;;;;;;;44.67;27.33;;;16.80;99.90;;;;;;5011947;28;20478;-84
2021/08/23 05:00:12;;;;;;;41.97;27.70;;;16.80;99.90;;;;;;5014917;28;20087;-84
2021/08/23 05:02:38;;;;;;;42.53;26.50;;;16.70;99.90;;;;;;5017058;28;20391;-84
2021/08/23 05:05:05;;;;;;;48.70;27.15;;;16.70;99.90;;;;;;5009553;28;20034;-84
2021/08/23 05:07:31;;;;;;;40.55;25.02;;;16.70;99.90;;;;;;5005703;28;20018;-84
2021/08/23 05:09:56;;;;;;;40.50;25.77;;;16.70;99.90;;;;;;5016935;28;20117;-84
2021/08/23 05:12:22;;;;;;;40.90;26.25;;;16.60;99.90;;;;;;5007783;28;20056;-84
2021/08/23 05:14:48;;;;;;;44.45;25.42;;;16.60;99.90;;;;;;5015800;28;20040;-84
2021/08/23 05:17:13;;;;;;;38.22;24.23;;;16.60;99.90;;;;;;5014930;28;20048;-85
2021/08/23 05:19:39;;;;;;;38.35;23.60;;;16.60;99.90;;;;;;5011954;28;20030;-85
2021/08/23 05:22:06;;;;;;;41.08;24.25;;;16.50;99.90;;;;;;5026352;28;20474;-86
2021/08/23 05:24:33;;;;;;;39.38;23.63;;;16.50;99.90;;;;;;5011804;28;20034;-86
2021/08/23 05:26:58;;;;;;;38.53;24.42;;;16.60;99.90;;;;;;5013361;28;20149;-85
2021/08/23 05:29:24;;;;;;;39.53;25.10;;;16.60;99.90;;;;;;5012000;28;20053;-86
2021/08/23 05:31:49;;;;;;;37.22;23.38;;;16.50;99.90;;;;;;5013047;28;20025;-86
2021/08/23 05:34:15;;;;;;;36.88;22.52;;;16.50;99.90;;;;;;5012995;28;20129;-86
2021/08/23 05:36:40;;;;;;;40.35;22.77;;;16.50;99.90;;;;;;5014358;28;20030;-86
2021/08/23 05:39:06;;;;;;;39.03;23.50;;;16.50;99.90;;;;;;4897493;28;23013;-86
2021/08/23 05:41:34;;;;;;;38.45;22.77;;;16.60;99.90;;;;;;4989310;28;20413;-86
2021/08/23 05:43:59;;;;;;;33.70;21.27;;;16.50;99.90;;;;;;4993658;28;20030;-85
2021/08/23 05:46:25;;;;;;;36.30;21.20;;;16.50;99.90;;;;;;4997429;28;20018;-84
2021/08/23 05:48:51;;;;;;;35.40;23.45;;;16.50;99.90;;;;;;5013985;28;20030;-86
2021/08/23 05:51:17;;;;;;;38.20;22.35;;;16.50;99.90;;;;;;4996290;28;20378;-86
2021/08/23 05:53:44;;;;;;;36.65;21.38;;;16.50;99.90;;;;;;4996890;28;20037;-83
2021/08/23 05:56:10;;;;;;;29.77;19.58;;;16.50;99.90;;;;;;4997148;28;20129;-86
2021/08/23 05:58:36;;;;;;;31.67;19.55;;;16.50;99.90;;;;;;4997839;28;20042;-86
2021/08/23 06:01:03;;;;;;;31.33;20.52;;;16.60;99.90;;;;;;4984209;28;20041;-85
2021/08/23 06:03:28;;;;;;;31.77;21.80;;;16.60;99.90;;;;;;5014210;28;20533;-86
2021/08/23 06:05:54;;;;;;;34.60;20.48;;;16.60;99.90;;;;;;4995171;28;20086;-83
2021/08/23 06:08:19;;;;;;;33.13;20.80;;;16.60;99.90;;;;;;4977352;28;20026;-86
2021/08/23 06:10:46;;;;;;;32.22;20.75;;;16.60;99.90;;;;;;4969143;28;20466;-86
2021/08/23 06:13:11;;;;;;;29.70;20.15;;;16.60;99.90;;;;;;4958543;28;20023;-86
2021/08/23 06:15:37;;;;;;;31.55;22.20;;;16.60;99.90;;;;;;4960966;28;20065;-86
2021/08/23 06:18:02;;;;;;;28.80;21.48;;;16.70;99.90;;;;;;4987481;28;20046;-84
2021/08/23 06:20:28;;;;;;;31.20;21.45;;;16.70;99.90;;;;;;4996316;28;20483;-85
2021/08/23 06:22:53;;;;;;;32.45;22.17;;;16.70;99.90;;;;;;4995496;28;20027;-85
2021/08/23 06:25:19;;;;;;;27.77;20.15;;;16.80;99.90;;;;;;4996129;28;20117;-84
2021/08/23 06:27:45;;;;;;;30.20;21.35;;;16.80;99.90;;;;;;4987971;28;20026;-85
2021/08/23 06:30:11;;;;;;;28.45;20.20;;;16.80;99.90;;;;;;4992304;28;20019;-84
2021/08/23 06:32:37;;;;;;;26.33;19.73;;;16.80;99.90;;;;;;4992371;28;20368;-85
2021/08/23 06:35:03;;;;;;;31.30;21.45;;;16.80;99.90;;;;;;4991439;28;20034;-84
2021/08/23 06:37:31;;;;;;;28.27;22.05;;;16.80;99.90;;;;;;4977248;28;20038;-85
2021/08/23 06:39:57;;;;;;;29.52;21.67;;;16.80;99.90;;;;;;4988140;28;20109;-85
2021/08/23 06:42:22;;;;;;;28.80;19.88;;;16.80;99.90;;;;;;4982827;28;20045;-85
2021/08/23 06:44:48;;;;;;;27.05;20.42;;;16.80;99.90;;;;;;4988743;28;20475;-85
2021/08/23 06:47:13;;;;;;;28.35;20.20;;;16.80;99.90;;;;;;5025712;28;20073;-85
2021/08/23 06:49:39;;;;;;;24.48;19.23;;;16.80;99.90;;;;;;4994867;28;20037;-85
2021/08/23 06:52:05;;;;;;;31.45;21.33;;;16.80;99.90;;;;;;4993958;28;20022;-83
2021/08/23 06:54:31;;;;;;;25.85;19.00;;;16.90;99.90;;;;;;4990014;28;20046;-83
2021/08/23 06:56:56;;;;;;;28.45;20.23;;;16.90;99.90;;;;;;4976308;28;20170;-85
2021/08/23 06:59:22;;;;;;;26.48;18.63;;;16.90;99.90;;;;;;4979417;28;20085;-85
2021/08/23 07:01:47;;;;;;;26.17;18.67;;;17.00;99.90;;;;;;4995224;28;20552;-85
2021/08/23 07:04:13;;;;;;;22.73;17.75;;;17.10;99.90;;;;;;4994997;28;20036;-85
2021/08/23 07:06:38;;;;;;;24.25;18.10;;;17.20;99.90;;;;;;4994265;28;20483;-85
2021/08/23 07:09:04;;;;;;;22.13;16.70;;;17.30;99.90;;;;;;4991290;28;20030;-85
2021/08/23 07:11:30;;;;;;;22.38;15.80;;;17.40;99.90;;;;;;4989719;28;20094;-86
2021/08/23 07:13:55;;;;;;;22.90;15.68;;;17.50;99.90;;;;;;4987681;28;20046;-85
2021/08/23 07:16:20;;;;;;;22.70;15.00;;;17.60;99.90;;;;;;4975598;28;20027;-85
2021/08/23 07:18:46;;;;;;;17.33;13.70;;;17.70;99.90;;;;;;4976400;28;20093;-85
2021/08/23 07:21:12;;;;;;;20.67;13.68;;;17.70;99.90;;;;;;4976418;28;20046;-85
2021/08/23 07:23:37;;;;;;;15.73;11.65;;;17.80;99.90;;;;;;4990777;28;20037;-85
2021/08/23 07:26:03;;;;;;;16.90;11.63;;;17.80;99.90;;;;;;4995457;28;20022;-85
2021/08/23 07:28:28;;;;;;;18.77;11.90;;;17.90;99.90;;;;;;4988333;28;20023;-85
2021/08/23 07:30:54;;;;;;;14.43;11.25;;;17.90;99.90;;;;;;4978353;28;20022;-85
2021/08/23 07:33:20;;;;;;;13.85;10.52;;;18.10;99.90;;;;;;4988918;28;20026;-85
2021/08/23 07:35:45;;;;;;;16.33;10.98;;;18.20;99.90;;;;;;4994365;28;20558;-85
2021/08/23 07:38:11;;;;;;;11.55;8.85;;;18.40;99.90;;;;;;4993793;28;20169;-85
2021/08/23 07:40:36;;;;;;;13.82;8.98;;;18.60;99.90;;;;;;4993493;28;20026;-85
2021/08/23 07:43:02;;;;;;;12.10;7.78;;;18.70;99.90;;;;;;4994573;28;20081;-85
2021/08/23 07:45:28;;;;;;;9.30;6.93;;;19.00;99.90;;;;;;4994539;28;20033;-85
2021/08/23 07:47:53;;;;;;;9.02;6.68;;;19.20;99.90;;;;;;4994802;28;20030;-85
2021/08/23 07:50:19;;;;;;;8.27;6.15;;;19.20;99.90;;;;;;4991846;28;20076;-85
2021/08/23 07:52:44;;;;;;;9.60;6.07;;;19.20;99.90;;;;;;4978902;28;20386;-85
2021/08/23 07:55:11;;;;;;;9.13;5.80;;;19.20;99.90;;;;;;4993179;28;20394;-86
2021/08/23 07:57:44;;;;;;;8.45;6.85;;;19.30;99.90;;;;;;4989637;28;20018;-86
2021/08/23 08:00:12;;;;;;;9.70;6.00;;;19.20;99.90;;;;;;4994500;28;20403;-85
2021/08/23 08:02:38;;;;;;;10.68;6.45;;;19.10;99.80;;;;;;4992907;28;20118;-85
2021/08/23 08:05:04;;;;;;;9.32;5.63;;;19.00;99.80;;;;;;4995481;28;20058;-85
2021/08/23 08:07:30;;;;;;;7.50;5.10;;;19.00;99.80;;;;;;4993749;28;20372;-85
2021/08/23 08:09:55;;;;;;;9.35;5.25;;;18.90;99.90;;;;;;4993920;28;20168;-84
2021/08/23 08:12:21;;;;;;;10.43;5.60;;;18.90;99.90;;;;;;4993338;28;20026;-84
2021/08/23 08:14:47;;;;;;;9.52;6.32;;;18.90;99.90;;;;;;4993889;28;20106;-84
2021/08/23 08:17:13;;;;;;;14.23;6.32;;;18.90;99.90;;;;;;5002296;28;20451;-85
2021/08/23 08:19:39;;;;;;;8.43;4.45;;;19.00;99.80;;;;;;4986397;28;20163;-85
2021/08/23 08:22:05;;;;;;;9.75;4.78;;;19.00;99.50;;;;;;4982069;28;20103;-85
2021/08/23 08:24:32;;;;;;;11.40;4.47;;;19.10;99.40;;;;;;4992741;28;20030;-89
2021/08/23 08:26:57;;;;;;;9.38;4.22;;;19.20;99.20;;;;;;4992722;28;20028;-85
2021/08/23 08:29:23;;;;;;;5.80;4.20;;;19.30;99.30;;;;;;4993689;28;20058;-84
2021/08/23 08:31:48;;;;;;;7.05;4.40;;;19.40;98.90;;;;;;4996179;28;20030;-85
2021/08/23 08:34:14;;;;;;;8.60;3.42;;;19.60;98.60;;;;;;4997808;28;20026;-85
2021/08/23 08:36:40;;;;;;;6.50;3.45;;;19.80;98.40;;;;;;4990973;28;20063;-84
2021/08/23 08:39:06;;;;;;;4.55;2.67;;;19.90;97.90;;;;;;4986299;28;20193;-84
2021/08/23 08:41:32;;;;;;;6.53;3.25;;;20.00;97.60;;;;;;4998544;28;20022;-84
2021/08/23 08:44:00;;;;;;;6.55;3.42;;;20.00;97.30;;;;;;4999957;28;20026;-84
2021/08/23 08:46:25;;;;;;;8.27;3.38;;;19.80;96.80;;;;;;4997145;28;20184;-84
2021/08/23 08:48:51;;;;;;;7.00;3.63;;;19.70;97.00;;;;;;4997197;28;20018;-84
2021/08/23 08:51:18;;;;;;;6.45;3.78;;;19.60;97.10;;;;;;4997139;28;20483;-84
2021/08/23 08:53:44;;;;;;;8.77;3.67;;;19.60;97.10;;;;;;4997186;28;20031;-84
2021/08/23 08:56:09;;;;;;;6.47;3.63;;;19.50;97.10;;;;;;4997375;28;20027;-84
2021/08/23 08:58:36;;;;;;;5.93;3.65;;;19.50;97.10;;;;;;4996974;28;20493;-84
2021/08/23 09:01:04;;;;;;;7.65;3.47;;;19.50;97.20;;;;;;4996537;28;20105;-83
2021/08/23 09:03:30;;;;;;;7.50;2.80;;;19.60;97.30;;;;;;4997975;28;20387;-84
2021/08/23 09:06:05;;;;;;;5.15;2.40;;;19.70;97.00;;;;;;4997414;28;20558;-84
2021/08/23 09:08:31;;;;;;;5.03;2.10;;;19.80;96.60;;;;;;4996645;28;20030;-84
2021/08/23 09:11:10;;;;;;;3.90;1.75;;;19.80;96.60;;;;;;4997253;28;20034;-84
2021/08/23 09:13:36;;;;;;;7.75;2.22;;;19.80;96.20;;;;;;4996598;28;20101;-84
2021/08/23 09:16:01;;;;;;;4.85;2.10;;;19.90;96.20;;;;;;4996526;28;20030;-84
2021/08/23 09:18:30;;;;;;;6.00;2.25;;;19.90;96.10;;;;;;4997710;28;20175;-84
2021/08/23 09:21:05;;;;;;;7.05;2.60;;;20.00;95.80;;;;;;4996648;28;20054;-84
2021/08/23 09:23:43;;;;;;;5.88;2.28;;;20.20;95.90;;;;;;4996032;28;20022;-84
2021/08/23 09:26:15;;;;;;;5.30;2.42;;;20.40;95.90;;;;;;4996925;28;20037;-95
2021/08/23 09:28:53;;;;;;;6.50;2.38;;;20.50;95.30;;;;;;4996043;28;20023;-84
2021/08/23 09:31:28;;;;;;;5.80;1.98;;;20.50;95.00;;;;;;4981012;28;20426;-84
2021/08/23 09:33:58;;;;;;;5.05;1.73;;;20.50;95.20;;;;;;4982857;28;20646;-84
2021/08/23 09:36:24;;;;;;;6.10;1.30;;;20.60;94.90;;;;;;4985439;28;20054;-85
2021/08/23 09:39:16;;;;;;;3.95;1.73;;;20.60;95.20;;;;;;4987745;28;20106;-84
2021/08/23 09:41:42;;;;;;;5.85;1.95;;;20.70;95.10;;;;;;5004307;28;20496;-85
2021/08/23 09:44:13;;;;;;;5.97;1.90;;;20.90;94.80;;;;;;4994115;28;20120;-84
2021/08/23 09:46:42;;;;;;;3.85;2.05;;;20.80;94.30;;;;;;4997326;28;20070;-83
2021/08/23 09:49:10;;;;;;;5.95;1.52;;;20.90;94.00;;;;;;4992006;28;20105;-83
2021/08/23 09:51:39;;;;;;;4.10;1.50;;;20.90;93.80;;;;;;5013434;28;21043;-83
2021/08/23 09:54:17;;;;;;;4.25;2.10;;;20.90;94.00;;;;;;4990679;28;20034;-85
2021/08/23 09:56:53;;;;;;;6.22;1.25;;;20.80;93.70;;;;;;5006005;28;20062;-84
2021/08/23 09:59:19;;;;;;;3.25;1.25;;;21.00;93.70;;;;;;4987708;28;20035;-84
2021/08/23 10:01:47;;;;;;;4.97;1.60;;;21.10;93.60;;;;;;4989654;28;20030;-84
2021/08/23 10:04:13;;;;;;;5.00;1.30;;;21.20;93.30;;;;;;4990036;28;20030;-84
2021/08/23 10:06:41;;;;;;;5.40;1.27;;;21.30;92.90;;;;;;4984772;28;20517;-85
2021/08/23 10:09:08;;;;;;;4.68;1.20;;;21.40;92.90;;;;;;4993116;28;20031;-85
2021/08/23 10:11:37;;;;;;;5.05;1.63;;;21.50;92.90;;;;;;4976255;28;20468;-85
2021/08/23 10:14:03;;;;;;;4.20;1.60;;;21.60;92.60;;;;;;4980015;28;20030;-85
2021/08/23 10:16:30;;;;;;;3.20;1.23;;;21.60;91.90;;;;;;4997254;28;20026;-85
2021/08/23 10:18:56;;;;;;;3.75;1.30;;;21.60;91.90;;;;;;4992479;28;20054;-85
2021/08/23 10:21:23;;;;;;;5.78;1.60;;;21.60;92.20;;;;;;4977115;28;20373;-85
2021/08/23 10:23:50;;;;;;;4.57;1.67;;;21.60;91.50;;;;;;4994297;28;20124;-85
2021/08/23 10:26:17;;;;;;;4.72;1.25;;;21.70;91.40;;;;;;4995958;28;20033;-85
2021/08/23 10:28:47;;;;;;;6.05;1.83;;;21.70;91.30;;;;;;4985135;28;20031;-84
2021/08/23 10:31:15;;;;;;;3.85;1.15;;;21.80;90.90;;;;;;4988771;28;20033;-83
2021/08/23 10:33:42;;;;;;;4.30;1.85;;;22.00;91.00;;;;;;4988362;28;20030;-83
2021/08/23 10:36:12;;;;;;;3.47;1.45;;;22.10;90.80;;;;;;4995275;28;20121;-83
2021/08/23 10:38:38;;;;;;;4.43;1.25;;;22.00;90.80;;;;;;4995712;28;20022;-83
2021/08/23 10:41:11;;;;;;;3.25;1.23;;;22.00;91.20;;;;;;4994021;28;20030;-84
2021/08/23 10:43:51;;;;;;;3.42;1.38;;;22.00;91.00;;;;;;4994940;28;20431;-84
2021/08/23 10:46:30;;;;;;;3.17;1.60;;;22.00;91.10;;;;;;4995708;28;20037;-83
2021/08/23 10:48:58;;;;;;;3.88;1.20;;;22.10;90.80;;;;;;4995313;28;20054;-83
2021/08/23 10:51:44;;;;;;;3.28;1.40;;;22.10;90.80;;;;;;4993632;28;20557;-83
2021/08/23 10:54:22;;;;;;;2.45;1.08;;;22.10;90.80;;;;;;4975537;28;20030;-84
2021/08/23 10:57:12;;;;;;;3.15;1.10;;;22.20;90.60;;;;;;4981458;28;20113;-83
2021/08/23 10:59:47;;;;;;;2.58;1.02;;;22.40;90.40;;;;;;4994050;28;20053;-83
2021/08/23 11:02:31;;;;;;;3.95;1.30;;;22.60;90.10;;;;;;4991852;28;20393;-83
2021/08/23 11:05:11;;;;;;;4.20;1.10;;;22.50;89.90;;;;;;4994935;28;20098;-83
2021/08/23 11:07:39;;;;;;;2.83;0.93;;;22.50;90.10;;;;;;4994852;28;20120;-84
2021/08/23 11:10:23;;;;;;;3.85;0.90;;;22.40;89.90;;;;;;4996177;28;20097;-84
2021/08/23 11:12:51;;;;;;;3.95;1.08;;;22.40;90.00;;;;;;5011524;28;20033;-84
2021/08/23 11:15:26;;;;;;;3.67;1.05;;;22.60;90.20;;;;;;5015554;28;20022;-83
2021/08/23 11:17:59;;;;;;;3.63;1.20;;;22.70;89.00;;;;;;5001506;28;20174;-83
2021/08/23 11:20:27;;;;;;;3.40;0.90;;;22.80;89.80;;;;;;4994336;28;20041;-83
2021/08/23 11:22:59;;;;;;;3.88;1.02;;;23.00;89.40;;;;;;4994168;28;20041;-84
2021/08/23 11:25:30;;;;;;;3.13;0.90;;;23.10;89.00;;;;;;4986506;28;20034;-83
2021/08/23 11:27:56;;;;;;;2.70;1.20;;;23.30;89.00;;;;;;4988794;28;20061;-83
2021/08/23 11:30:33;;;;;;;3.47;1.25;;;23.30;87.10;;;;;;5017798;28;20121;-84
2021/08/23 11:32:59;;;;;;;4.30;0.98;;;23.20;87.10;;;;;;4988572;28;20530;-84
2021/08/23 11:35:24;;;;;;;2.83;1.10;;;23.10;88.00;;;;;;4995195;28;20036;-84
2021/08/23 11:37:55;;;;;;;4.85;1.20;;;23.20;88.00;;;;;;4992935;28;20057;-84
2021/08/23 11:40:20;;;;;;;4.20;1.05;;;23.30;87.80;;;;;;4990400;28;20072;-84
2021/08/23 11:42:50;;;;;;;3.13;1.38;;;23.30;87.40;;;;;;4994012;28;20382;-84
2021/08/23 11:45:21;;;;;;;3.70;1.38;;;23.40;86.40;;;;;;4993769;28;20041;-84
2021/08/23 11:47:49;;;;;;;2.80;1.23;;;23.40;87.20;;;;;;4993127;28;20029;-84
2021/08/23 11:50:18;;;;;;;3.40;0.85;;;23.40;85.60;;;;;;4993510;28;20029;-84
2021/08/23 11:52:43;;;;;;;3.33;1.40;;;23.30;86.10;;;;;;4994632;28;20049;-84
2021/08/23 11:55:09;;;;;;;2.60;0.90;;;23.30;86.20;;;;;;5015539;28;20088;-84
2021/08/23 11:57:36;;;;;;;2.72;1.25;;;23.30;86.80;;;;;;4989683;28;20034;-84
2021/08/23 12:00:04;;;;;;;3.40;0.90;;;23.60;86.00;;;;;;4992321;28;20089;-84
2021/08/23 12:02:36;;;;;;;3.63;0.98;;;23.70;85.50;;;;;;4991790;28;20034;-84
2021/08/23 12:05:09;;;;;;;;;;;23.80;85.10;;;;;;4992374;28;20183;-84
2021/08/23 12:07:48;;;;;;;2.85;0.85;;;23.60;84.70;;;;;;4993286;28;20285;-84
2021/08/23 12:10:28;;;;;;;2.30;1.10;;;23.30;85.00;;;;;;4992585;28;20502;-84
2021/08/23 12:13:08;;;;;;;6.57;1.10;;;23.20;84.50;;;;;;4993980;28;20037;-84
2021/08/23 12:16:01;;;;;;;3.25;0.80;;;23.10;85.70;;;;;;4993849;28;20030;-85
2021/08/23 12:18:34;;;;;;;2.10;0.90;;;23.20;86.60;;;;;;4991329;28;20410;-84
2021/08/23 12:21:13;;;;;;;4.65;0.80;;;23.40;84.50;;;;;;4985607;28;20053;-84
2021/08/23 12:23:56;;;;;;;2.20;0.75;;;23.50;84.80;;;;;;4990249;28;20398;-84
2021/08/23 12:26:33;;;;;;;2.70;0.90;;;23.60;82.90;;;;;;5008010;28;20445;-84
2021/08/23 12:29:10;;;;;;;1.60;0.70;;;23.50;82.40;;;;;;4992327;28;20030;-84
2021/08/23 12:31:57;;;;;;;1.65;0.60;;;23.50;81.90;;;;;;5007922;28;20427;-84
2021/08/23 12:34:29;;;;;;;2.30;0.80;;;23.50;81.80;;;;;;4992352;28;20031;-84
2021/08/23 12:36:59;;;;;;;4.55;0.93;;;23.30;81.60;;;;;;4990352;28;20419;-84
2021/08/23 12:39:26;;;;;;;2.42;0.73;;;23.30;82.30;;;;;;4990713;28;20049;-84